LFRN 231700Z AUTO 09003KT CAVOK 15/07 Q1030 BECMG 3000 BR

ElémentsDécodage
LFRN Station météo située sur l'aérodrome de RENNES Saint-Jacques
231700Z émis le 23 du mois à 17h00 UTC
AUTO Bulletin édité par un automate
09003KT vent du 090°, 03 noeuds
CAVOK Ceiling And Visibility OK
- Visibilité de 10 Km ou plus
- Pas de nuage au-dessous de 1500m ou au-dessous de l'altitude minimale du secteur la plus élevée (si>1500m) et absence de CB
- pas de temps présent significatif
15/07 température 15°C, point de rosée 07°C
 soit une humidité relative de 59%
Q1030 la pression au niveau de la mer (QNH) est de 1030 hPa
BECMG fluctuation du temps prévue
3000 visibilité horizontale de 3000 mètres
BR brume